Time;durP1;ratioP1;P1;durP2;ratioP2;P2;SDS_P1;SDS_P2;PMS_P1;PMS_P2;Temp;Humidity;BMP_temperature;BMP_pressure;BME280_temperature;BME280_humidity;BME280_pressure;Samples;Min_cycle;Max_cycle;Signal;HPM_P1;HPM_P2
2023/07/27 00:01:47;;;;;;;85.28;55.90;;;28.00;99.90;;;;;;5050918;28;20040;-67
2023/07/27 00:04:13;;;;;;;93.95;59.03;;;28.00;99.90;;;;;;5050903;28;20077;-66
2023/07/27 00:06:40;;;;;;;84.65;56.75;;;28.00;99.90;;;;;;5050642;28;20036;-67
2023/07/27 00:09:06;;;;;;;102.45;66.18;;;28.00;99.90;;;;;;5050567;28;20029;-67
2023/07/27 00:11:33;;;;;;;97.43;62.25;;;28.00;99.90;;;;;;5050733;28;20021;-66
2023/07/27 00:13:59;;;;;;;85.47;58.50;;;28.10;99.90;;;;;;5050610;28;20017;-66
2023/07/27 00:16:26;;;;;;;85.60;57.90;;;28.10;99.90;;;;;;5051124;28;20351;-66
2023/07/27 00:18:53;;;;;;;92.93;59.45;;;28.20;99.90;;;;;;5050729;28;20028;-65
2023/07/27 00:21:19;;;;;;;84.15;58.35;;;28.20;99.90;;;;;;5050418;28;20539;-66
2023/07/27 00:23:46;;;;;;;89.05;55.53;;;28.20;99.90;;;;;;5050718;28;20036;-65
2023/07/27 00:26:12;;;;;;;86.55;53.83;;;28.30;99.90;;;;;;5050597;28;20057;-66
2023/07/27 00:28:39;;;;;;;78.57;53.42;;;28.30;99.90;;;;;;5050201;28;20029;-66
2023/07/27 00:31:05;;;;;;;77.50;49.97;;;28.40;99.90;;;;;;5050472;28;20025;-66
2023/07/27 00:33:32;;;;;;;75.28;51.20;;;28.40;99.90;;;;;;5050455;28;20020;-65
2023/07/27 00:35:59;;;;;;;77.45;52.92;;;28.40;99.90;;;;;;5050285;28;20025;-65
2023/07/27 00:38:27;;;;;;;77.45;50.28;;;28.50;99.90;;;;;;5050270;28;20039;-65
2023/07/27 00:40:54;;;;;;;79.68;51.25;;;28.50;99.90;;;;;;5050330;28;20020;-66
2023/07/27 00:43:20;;;;;;;78.70;49.78;;;28.60;99.90;;;;;;5050074;28;20483;-65
2023/07/27 00:45:49;;;;;;;68.07;45.72;;;28.60;99.90;;;;;;5048885;28;20413;-66
2023/07/27 00:48:16;;;;;;;71.00;45.63;;;28.60;99.90;;;;;;5050404;28;20033;-66
2023/07/27 00:50:43;;;;;;;71.55;46.33;;;28.70;99.90;;;;;;5048883;28;20022;-66
2023/07/27 00:53:10;;;;;;;74.25;49.58;;;28.70;99.90;;;;;;5049989;28;20428;-64
2023/07/27 00:55:37;;;;;;;81.35;54.35;;;28.80;99.90;;;;;;5049213;28;20025;-65
2023/07/27 00:58:04;;;;;;;72.00;50.17;;;28.80;99.90;;;;;;5049923;28;20497;-64
2023/07/27 01:00:31;;;;;;;77.50;47.58;;;28.80;99.90;;;;;;5050037;28;20111;-65
2023/07/27 01:03:00;;;;;;;70.82;46.65;;;28.80;99.90;;;;;;5049995;28;20021;-66
2023/07/27 01:05:27;;;;;;;81.88;50.15;;;28.90;99.90;;;;;;5049808;28;20025;-66
2023/07/27 01:07:54;;;;;;;73.20;46.60;;;28.90;99.90;;;;;;5049987;28;20029;-67
2023/07/27 01:10:33;;;;;;;73.60;47.80;;;28.90;99.90;;;;;;5049974;28;20390;-67
2023/07/27 01:13:08;;;;;;;239.00;160.25;;;28.90;99.90;;;;;;5049840;28;20048;-66
2023/07/27 01:15:42;;;;;;;98.78;67.53;;;29.00;99.90;;;;;;5049958;28;20021;-67
2023/07/27 01:18:18;;;;;;;111.88;75.60;;;29.00;99.90;;;;;;5090335;27;20079;-67
2023/07/27 01:21:01;;;;;;;108.40;85.95;;;29.10;99.90;;;;;;5051836;27;20033;-66
2023/07/27 01:24:00;;;;;;;79.72;51.05;;;29.10;99.90;;;;;;5049671;28;20071;-67
2023/07/27 01:26:32;;;;;;;77.85;47.33;;;29.20;99.90;;;;;;5049090;28;20490;-67
2023/07/27 01:29:20;;;;;;;71.20;47.53;;;29.20;99.90;;;;;;5047994;28;20037;-67
2023/07/27 01:31:51;;;;;;;68.50;43.80;;;29.20;99.90;;;;;;5048931;28;20025;-67
2023/07/27 01:34:31;;;;;;;66.95;44.47;;;29.20;99.90;;;;;;5049747;28;20501;-67
2023/07/27 01:37:04;;;;;;;61.35;42.38;;;29.30;99.90;;;;;;5048507;28;20036;-68
2023/07/27 01:39:41;;;;;;;69.47;44.97;;;29.30;99.90;;;;;;5049150;28;20535;-68
2023/07/27 01:42:11;;;;;;;65.43;41.60;;;29.40;99.90;;;;;;5049589;28;20033;-68
2023/07/27 01:44:39;;;;;;;64.20;42.20;;;29.40;99.90;;;;;;5049294;28;20025;-67
2023/07/27 01:47:07;;;;;;;192.88;137.35;;;29.50;99.90;;;;;;5049651;28;20100;-68
2023/07/27 01:49:37;;;;;;;156.02;111.75;;;29.50;99.90;;;;;;5049269;28;20471;-68
2023/07/27 01:52:04;;;;;;;107.20;80.18;;;29.60;99.90;;;;;;5049438;28;20029;-68
2023/07/27 01:54:32;;;;;;;73.25;49.97;;;29.60;99.90;;;;;;5049431;28;20085;-68
2023/07/27 01:56:59;;;;;;;63.25;44.40;;;29.70;99.90;;;;;;5051626;28;20480;-68
2023/07/27 01:59:26;;;;;;;60.53;41.72;;;29.70;99.90;;;;;;5052606;28;20077;-67
2023/07/27 02:01:54;;;;;;;56.65;38.28;;;29.70;99.90;;;;;;5052820;28;20482;-67
2023/07/27 02:04:21;;;;;;;63.22;42.80;;;29.80;99.90;;;;;;5052675;28;20099;-66
2023/07/27 02:06:51;;;;;;;64.80;41.13;;;29.70;99.90;;;;;;5053281;28;20273;-67
2023/07/27 02:09:18;;;;;;;62.35;41.03;;;29.70;99.90;;;;;;5052582;28;20056;-66
2023/07/27 02:11:49;;;;;;;68.47;42.85;;;29.70;99.90;;;;;;5052585;28;20017;-66
2023/07/27 02:14:36;;;;;;;54.15;37.72;;;29.90;99.90;;;;;;5052629;28;20025;-66
2023/07/27 02:17:12;;;;;;;69.80;52.58;;;29.90;99.90;;;;;;5052368;28;20100;-66
2023/07/27 02:19:42;;;;;;;59.70;39.15;;;30.00;99.90;;;;;;5052626;28;20051;-67
2023/07/27 02:22:10;;;;;;;60.47;41.30;;;30.10;99.90;;;;;;5052357;28;20033;-67
2023/07/27 02:24:37;;;;;;;60.50;40.08;;;30.10;99.90;;;;;;5052167;28;20028;-68
2023/07/27 02:27:03;;;;;;;53.90;39.15;;;30.20;99.90;;;;;;5052319;28;20546;-68
2023/07/27 02:29:30;;;;;;;51.60;35.95;;;30.20;99.90;;;;;;5052215;28;20077;-69
2023/07/27 02:31:56;;;;;;;53.92;36.72;;;30.30;99.90;;;;;;5052124;28;20027;-69
2023/07/27 02:34:23;;;;;;;55.05;37.38;;;30.30;99.90;;;;;;5052297;28;20017;-67
2023/07/27 02:36:49;;;;;;;52.67;37.85;;;30.30;99.90;;;;;;5052200;28;20475;-69
2023/07/27 02:39:16;;;;;;;55.45;41.28;;;30.40;99.90;;;;;;5050833;28;20112;-68
2023/07/27 02:41:43;;;;;;;59.05;38.95;;;30.40;99.90;;;;;;5052140;28;20308;-67
2023/07/27 02:44:09;;;;;;;51.08;34.92;;;30.40;99.90;;;;;;5052101;28;20063;-67
2023/07/27 02:46:36;;;;;;;54.65;38.13;;;30.40;99.90;;;;;;5051940;28;20040;-65
2023/07/27 02:49:02;;;;;;;52.47;39.08;;;30.50;99.90;;;;;;5051956;28;20021;-66
2023/07/27 02:51:29;;;;;;;52.72;38.55;;;30.60;99.90;;;;;;5051969;28;20017;-65
2023/07/27 02:53:55;;;;;;;55.05;39.95;;;30.50;99.90;;;;;;5051819;28;20208;-64
2023/07/27 02:56:22;;;;;;;55.75;38.40;;;30.50;99.90;;;;;;5052038;28;20024;-65
2023/07/27 02:58:48;;;;;;;63.38;42.45;;;30.50;99.90;;;;;;5051796;28;20057;-65
2023/07/27 03:01:15;;;;;;;60.33;44.50;;;30.60;99.90;;;;;;5044511;28;20378;-65
2023/07/27 03:03:42;;;;;;;59.97;41.42;;;30.60;99.90;;;;;;5047272;28;20028;-65
2023/07/27 03:06:08;;;;;;;56.97;39.63;;;30.70;99.90;;;;;;5039872;28;20032;-65
2023/07/27 03:08:35;;;;;;;54.88;38.67;;;30.80;99.90;;;;;;5036384;28;20034;-64
2023/07/27 03:11:03;;;;;;;50.58;37.72;;;30.80;99.90;;;;;;5046808;28;20021;-65
2023/07/27 03:13:31;;;;;;;52.80;38.92;;;30.90;99.90;;;;;;5050301;28;20505;-65
2023/07/27 03:15:59;;;;;;;51.42;39.25;;;30.90;99.90;;;;;;5050306;28;20483;-65
2023/07/27 03:18:27;;;;;;;54.58;39.10;;;30.80;99.90;;;;;;5051068;28;20097;-65
2023/07/27 03:20:53;;;;;;;55.83;38.78;;;30.80;99.90;;;;;;5051433;28;20032;-65
2023/07/27 03:23:20;;;;;;;58.83;38.58;;;30.80;99.90;;;;;;5051259;28;20424;-66
2023/07/27 03:25:46;;;;;;;56.13;39.25;;;30.90;99.90;;;;;;5051457;28;20037;-65
2023/07/27 03:28:13;;;;;;;55.50;37.85;;;30.90;99.90;;;;;;5051342;28;20060;-65
2023/07/27 03:30:40;;;;;;;49.05;35.55;;;31.00;99.90;;;;;;5051313;28;20033;-65
2023/07/27 03:33:07;;;;;;;51.70;36.70;;;31.10;99.90;;;;;;5051290;28;20093;-65
2023/07/27 03:35:35;;;;;;;52.15;35.42;;;31.00;99.90;;;;;;5051340;28;20096;-65
2023/07/27 03:38:02;;;;;;;50.55;34.67;;;31.10;99.90;;;;;;5050381;28;20025;-64
2023/07/27 03:40:29;;;;;;;47.75;34.22;;;31.20;99.90;;;;;;5040558;28;20029;-65
2023/07/27 03:42:56;;;;;;;48.53;34.45;;;31.20;99.90;;;;;;5043235;28;20513;-65
2023/07/27 03:45:22;;;;;;;46.50;34.17;;;31.30;99.90;;;;;;5051001;28;20033;-65
2023/07/27 03:47:49;;;;;;;43.17;32.83;;;31.40;99.90;;;;;;5050918;28;20029;-64
2023/07/27 03:50:15;;;;;;;40.67;31.92;;;31.40;99.90;;;;;;5049731;27;20029;-63
2023/07/27 03:52:42;;;;;;;44.15;32.88;;;31.50;99.90;;;;;;5040711;28;20026;-65
2023/07/27 03:55:08;;;;;;;44.50;32.95;;;31.60;99.90;;;;;;5044401;28;20382;-64
2023/07/27 03:57:35;;;;;;;41.45;31.30;;;31.70;99.90;;;;;;5050984;28;20466;-65
2023/07/27 04:00:03;;;;;;;44.83;31.55;;;31.60;99.90;;;;;;5050854;27;20491;-64
2023/07/27 04:02:30;;;;;;;41.55;31.08;;;31.60;99.90;;;;;;5050624;28;20036;-65
2023/07/27 04:04:56;;;;;;;42.42;31.48;;;31.70;99.90;;;;;;5050889;28;20113;-65
2023/07/27 04:07:23;;;;;;;47.97;32.67;;;31.70;99.90;;;;;;5015660;22;20061;-66
2023/07/27 04:09:49;;;;;;;45.78;31.80;;;31.80;99.90;;;;;;4971875;28;20112;-67
2023/07/27 04:12:16;;;;;;;39.05;31.02;;;31.80;99.90;;;;;;4972027;28;20030;-66
2023/07/27 04:14:42;;;;;;;41.40;31.02;;;31.90;99.90;;;;;;4972106;28;20023;-66
2023/07/27 04:17:09;;;;;;;41.45;30.83;;;31.90;99.90;;;;;;4972171;28;20102;-66
2023/07/27 04:19:35;;;;;;;42.55;30.13;;;32.00;99.90;;;;;;4971502;28;20085;-67
2023/07/27 04:22:02;;;;;;;39.88;30.88;;;32.00;99.90;;;;;;4971765;28;20031;-68
2023/07/27 04:24:29;;;;;;;46.47;34.42;;;32.00;99.90;;;;;;4971877;28;20106;-68
2023/07/27 04:26:56;;;;;;;55.92;37.83;;;32.10;99.90;;;;;;4971677;28;20033;-65
2023/07/27 04:29:22;;;;;;;54.80;34.38;;;32.20;99.90;;;;;;4971475;28;20038;-67
2023/07/27 04:31:49;;;;;;;50.28;32.97;;;32.30;99.90;;;;;;4970863;28;20019;-65
2023/07/27 04:34:15;;;;;;;44.20;29.95;;;32.30;99.90;;;;;;4971331;28;20019;-65
2023/07/27 04:36:42;;;;;;;38.15;27.05;;;32.50;99.90;;;;;;4969502;28;20178;-65
2023/07/27 04:39:08;;;;;;;42.92;28.48;;;32.50;99.90;;;;;;4970964;28;20022;-65
2023/07/27 04:41:35;;;;;;;35.13;28.38;;;32.50;99.90;;;;;;4969647;28;20030;-65
2023/07/27 04:44:01;;;;;;;39.17;28.38;;;32.50;99.90;;;;;;4971318;28;20079;-65
2023/07/27 04:46:28;;;;;;;39.95;28.52;;;32.50;99.90;;;;;;4971446;28;20034;-64
2023/07/27 04:48:54;;;;;;;40.20;27.60;;;32.50;99.90;;;;;;4973999;28;20030;-65
2023/07/27 04:51:21;;;;;;;41.22;29.95;;;32.50;99.90;;;;;;4990416;28;20091;-65
2023/07/27 04:53:47;;;;;;;41.65;29.13;;;32.50;99.90;;;;;;4990678;28;20337;-64
2023/07/27 04:56:14;;;;;;;38.83;27.55;;;32.60;99.90;;;;;;4991133;28;20018;-68
2023/07/27 04:58:40;;;;;;;38.88;29.30;;;32.70;99.90;;;;;;4990821;28;20034;-65
2023/07/27 05:01:07;;;;;;;40.38;28.98;;;32.70;99.90;;;;;;4990652;28;20030;-65
2023/07/27 05:03:33;;;;;;;40.33;28.77;;;32.70;99.90;;;;;;4990308;28;20110;-65
2023/07/27 05:06:00;;;;;;;33.42;25.60;;;32.60;99.90;;;;;;4984537;28;20134;-65
2023/07/27 05:08:27;;;;;;;34.53;26.98;;;32.60;99.90;;;;;;4976703;28;20031;-65
2023/07/27 05:10:53;;;;;;;36.55;26.98;;;32.70;99.90;;;;;;4971279;28;20023;-65
2023/07/27 05:13:20;;;;;;;37.92;24.70;;;32.70;99.90;;;;;;4979687;28;20037;-66
2023/07/27 05:15:46;;;;;;;37.97;26.08;;;32.90;99.90;;;;;;4972493;28;20068;-65
2023/07/27 05:18:14;;;;;;;37.13;26.95;;;32.90;99.90;;;;;;4970914;28;20076;-65
2023/07/27 05:20:41;;;;;;;40.08;25.98;;;33.00;99.90;;;;;;4970958;28;20043;-65
2023/07/27 05:23:07;;;;;;;35.50;25.90;;;32.90;99.90;;;;;;4970892;28;20049;-65
2023/07/27 05:25:34;;;;;;;35.72;25.40;;;33.00;99.90;;;;;;4970679;28;20027;-65
2023/07/27 05:28:00;;;;;;;37.72;25.73;;;32.90;99.90;;;;;;4970866;28;20361;-65
2023/07/27 05:30:27;;;;;;;44.40;27.77;;;32.80;99.90;;;;;;4971290;28;20103;-64
2023/07/27 05:32:53;;;;;;;45.90;26.05;;;32.80;99.90;;;;;;4974270;28;20102;-65
2023/07/27 05:35:20;;;;;;;36.20;25.55;;;33.00;99.90;;;;;;4974189;28;20019;-65
2023/07/27 05:37:46;;;;;;;35.53;25.88;;;33.00;99.90;;;;;;4974160;28;20404;-63
2023/07/27 05:40:14;;;;;;;35.42;23.85;;;33.10;99.90;;;;;;4984523;28;20034;-65
2023/07/27 05:42:41;;;;;;;34.03;23.55;;;33.20;99.90;;;;;;4992972;28;20083;-67
2023/07/27 05:45:09;;;;;;;28.08;20.08;;;33.20;99.90;;;;;;4993570;28;20034;-65
2023/07/27 05:47:35;;;;;;;40.25;26.55;;;33.10;99.90;;;;;;4992640;28;20498;-64
2023/07/27 05:50:03;;;;;;;34.83;24.80;;;33.10;99.90;;;;;;4992319;28;20034;-66
2023/07/27 05:52:29;;;;;;;40.55;26.77;;;33.10;99.90;;;;;;4993713;28;20027;-66
2023/07/27 05:54:55;;;;;;;41.15;27.08;;;33.00;99.90;;;;;;4993531;28;20041;-67
2023/07/27 05:57:22;;;;;;;39.55;26.40;;;33.10;99.90;;;;;;4993424;28;20018;-67
2023/07/27 05:59:49;;;;;;;41.00;26.85;;;33.20;99.90;;;;;;4991621;28;20050;-68
2023/07/27 06:02:15;;;;;;;34.47;25.92;;;33.20;99.90;;;;;;4991556;28;20026;-66
2023/07/27 06:04:42;;;;;;;34.55;24.20;;;33.10;99.90;;;;;;4992260;28;20037;-68
2023/07/27 06:07:08;;;;;;;38.20;25.88;;;33.10;99.90;;;;;;4986240;28;20050;-68
2023/07/27 06:09:36;;;;;;;38.47;27.75;;;33.30;99.90;;;;;;4982312;28;20050;-65
2023/07/27 06:12:11;;;;;;;35.45;25.88;;;33.30;99.90;;;;;;4987004;28;20032;-65
2023/07/27 06:14:41;;;;;;;33.55;23.73;;;33.30;99.90;;;;;;4993254;28;20439;-65
2023/07/27 06:17:08;;;;;;;32.92;22.98;;;33.20;99.90;;;;;;4993181;28;20022;-65
2023/07/27 06:19:34;;;;;;;33.50;23.52;;;33.20;99.90;;;;;;4993299;28;20033;-64
2023/07/27 06:22:01;;;;;;;37.92;24.88;;;33.30;99.90;;;;;;4993464;28;20105;-65
2023/07/27 06:24:28;;;;;;;32.42;24.75;;;33.40;99.90;;;;;;4992539;28;20029;-65
2023/07/27 06:26:55;;;;;;;35.35;24.20;;;33.50;99.90;;;;;;4993271;28;20092;-65
2023/07/27 06:29:21;;;;;;;38.58;25.58;;;33.60;99.90;;;;;;4992366;28;20034;-65
2023/07/27 06:31:48;;;;;;;42.22;26.38;;;33.80;99.90;;;;;;4992117;28;20058;-65
2023/07/27 06:34:15;;;;;;;39.00;26.67;;;33.90;99.90;;;;;;4992503;28;20374;-63
2023/07/27 06:36:41;;;;;;;38.78;25.17;;;33.90;99.90;;;;;;4992505;28;20103;-65
2023/07/27 06:39:08;;;;;;;29.92;24.10;;;33.90;99.90;;;;;;4992444;28;20031;-64
2023/07/27 06:41:35;;;;;;;31.08;22.00;;;33.90;99.90;;;;;;4992397;28;20033;-66
2023/07/27 06:44:02;;;;;;;38.38;24.58;;;33.90;99.90;;;;;;4992635;28;20026;-66
2023/07/27 06:46:28;;;;;;;37.58;25.65;;;33.90;99.90;;;;;;4992748;28;20075;-66
2023/07/27 06:48:55;;;;;;;34.90;23.92;;;33.90;99.90;;;;;;4993040;28;20499;-66
2023/07/27 06:51:23;;;;;;;36.13;25.63;;;33.90;99.90;;;;;;4992853;28;20033;-65
2023/07/27 06:53:50;;;;;;;28.95;23.73;;;33.90;99.90;;;;;;4992685;28;20362;-66
2023/07/27 06:56:19;;;;;;;38.25;24.85;;;34.00;99.90;;;;;;4991610;28;20413;-66
2023/07/27 06:58:46;;;;;;;28.00;21.88;;;34.00;99.90;;;;;;4992712;28;20528;-66
2023/07/27 07:01:13;;;;;;;33.58;21.92;;;33.90;99.90;;;;;;4992536;28;20152;-65
2023/07/27 07:03:39;;;;;;;47.47;26.08;;;33.90;99.90;;;;;;4992560;28;20034;-66
2023/07/27 07:06:06;;;;;;;32.58;23.60;;;33.90;99.90;;;;;;4992456;28;20099;-65
2023/07/27 07:08:32;;;;;;;33.33;25.50;;;34.00;99.90;;;;;;4992259;28;20037;-65
2023/07/27 07:10:59;;;;;;;34.20;24.35;;;34.10;99.90;;;;;;4992734;28;20038;-66
2023/07/27 07:13:26;;;;;;;31.98;24.70;;;34.20;99.90;;;;;;4992846;28;20094;-65
2023/07/27 07:15:52;;;;;;;33.83;25.65;;;34.20;99.90;;;;;;4992453;28;20037;-65
2023/07/27 07:18:19;;;;;;;33.47;25.08;;;34.20;99.90;;;;;;4990692;28;20580;-66
2023/07/27 07:20:46;;;;;;;37.33;24.83;;;34.20;99.90;;;;;;4991969;28;20029;-66
2023/07/27 07:23:13;;;;;;;37.53;26.10;;;34.10;99.90;;;;;;4989303;28;20029;-66
2023/07/27 07:25:40;;;;;;;34.33;24.50;;;34.20;99.90;;;;;;4991815;28;20089;-66
2023/07/27 07:28:06;;;;;;;33.75;23.98;;;34.30;99.90;;;;;;4981172;28;20050;-66
2023/07/27 07:30:33;;;;;;;42.92;26.27;;;34.30;99.90;;;;;;4991827;28;20022;-66
2023/07/27 07:32:59;;;;;;;45.15;30.20;;;34.40;99.90;;;;;;4991662;28;20480;-66
2023/07/27 07:35:26;;;;;;;36.17;25.73;;;34.40;99.90;;;;;;4991792;28;20102;-66
2023/07/27 07:37:52;;;;;;;37.75;27.52;;;34.50;99.90;;;;;;4991666;28;20025;-66
2023/07/27 07:40:23;;;;;;;38.13;27.20;;;34.50;99.90;;;;;;4991535;28;20018;-69
2023/07/27 07:42:50;;;;;;;53.60;35.78;;;34.40;99.90;;;;;;4980886;28;20102;-68
2023/07/27 07:45:16;;;;;;;42.05;28.52;;;34.40;99.90;;;;;;4991513;28;20030;-69
2023/07/27 07:47:43;;;;;;;36.58;28.83;;;34.30;99.90;;;;;;4989415;28;20023;-70
2023/07/27 07:50:10;;;;;;;38.20;25.63;;;34.30;99.90;;;;;;4988532;28;20057;-68
2023/07/27 07:52:36;;;;;;;41.45;25.45;;;34.30;99.90;;;;;;4976948;28;20031;-68
2023/07/27 07:55:03;;;;;;;29.67;24.80;;;34.20;99.90;;;;;;4976075;28;20366;-68
2023/07/27 07:57:30;;;;;;;35.92;26.08;;;34.20;99.90;;;;;;4980451;28;20014;-68
2023/07/27 07:59:56;;;;;;;35.17;24.42;;;34.30;99.90;;;;;;4991288;28;20069;-68
2023/07/27 08:02:23;;;;;;;39.70;26.52;;;34.40;99.90;;;;;;4991293;28;20560;-68
2023/07/27 08:04:49;;;;;;;40.03;26.20;;;34.30;99.90;;;;;;4990766;28;20079;-67
2023/07/27 08:07:16;;;;;;;36.90;25.98;;;34.40;99.90;;;;;;4980423;28;20050;-69
2023/07/27 08:09:43;;;;;;;35.78;26.30;;;34.40;99.90;;;;;;4992037;28;20034;-68
2023/07/27 08:12:09;;;;;;;35.22;26.27;;;34.40;99.90;;;;;;4991049;28;20494;-69
2023/07/27 08:14:36;;;;;;;35.10;25.30;;;34.50;99.90;;;;;;4981229;28;20069;-68
2023/07/27 08:17:03;;;;;;;35.15;27.00;;;34.50;99.90;;;;;;4981792;28;20050;-68
2023/07/27 08:19:29;;;;;;;33.75;24.83;;;34.50;99.90;;;;;;4981158;28;20023;-68
2023/07/27 08:21:56;;;;;;;36.65;24.90;;;34.60;99.90;;;;;;4990745;28;20420;-67
2023/07/27 08:24:24;;;;;;;34.63;25.75;;;34.60;99.90;;;;;;4990803;28;20075;-68
2023/07/27 08:26:51;;;;;;;35.08;25.15;;;34.70;99.90;;;;;;4981627;28;20042;-69
2023/07/27 08:29:17;;;;;;;31.40;22.92;;;34.70;99.90;;;;;;4981621;28;20029;-68
2023/07/27 08:31:44;;;;;;;65.45;48.85;;;34.70;99.90;;;;;;4980102;28;20050;-69
2023/07/27 08:34:10;;;;;;;42.72;31.17;;;34.70;99.90;;;;;;4981665;28;20508;-68
2023/07/27 08:36:37;;;;;;;85.05;61.20;;;34.70;99.90;;;;;;4985394;28;20101;-69
2023/07/27 08:39:04;;;;;;;81.70;60.03;;;34.70;99.90;;;;;;4990726;28;20027;-67
2023/07/27 08:41:31;;;;;;;44.78;27.98;;;34.60;99.90;;;;;;4981785;28;20278;-68
2023/07/27 08:43:59;;;;;;;38.50;25.70;;;34.70;99.90;;;;;;4980765;28;20027;-67
2023/07/27 08:46:28;;;;;;;34.45;25.33;;;34.80;99.90;;;;;;4979389;28;20026;-66
2023/07/27 08:48:56;;;;;;;32.28;23.58;;;34.80;99.90;;;;;;4990076;28;20084;-66
2023/07/27 08:51:22;;;;;;;36.75;24.60;;;34.80;99.90;;;;;;4990313;28;20041;-67
2023/07/27 08:53:49;;;;;;;36.03;24.60;;;34.70;99.90;;;;;;4989977;28;20023;-67
2023/07/27 08:56:16;;;;;;;41.00;25.10;;;34.60;99.90;;;;;;4980450;28;20018;-67
2023/07/27 08:58:43;;;;;;;36.25;24.98;;;34.60;99.90;;;;;;4981878;28;20489;-67
2023/07/27 09:01:09;;;;;;;31.15;22.17;;;34.60;99.90;;;;;;4988155;28;20019;-66
2023/07/27 09:03:36;;;;;;;36.00;25.48;;;34.60;99.90;;;;;;4990247;28;20026;-67
2023/07/27 09:06:03;;;;;;;34.03;24.92;;;34.60;99.90;;;;;;4992539;28;20042;-67
2023/07/27 09:08:30;;;;;;;36.58;24.95;;;34.60;99.90;;;;;;4989581;28;20080;-69
2023/07/27 09:11:10;;;;;;;33.70;24.27;;;34.70;99.90;;;;;;4989527;28;20035;-68
2023/07/27 09:13:37;;;;;;;33.47;23.60;;;34.70;99.90;;;;;;4991053;28;20488;-69
2023/07/27 09:16:08;;;;;;;35.50;23.67;;;34.60;99.90;;;;;;4994013;28;20093;-70
2023/07/27 09:18:36;;;;;;;34.65;23.25;;;34.60;99.90;;;;;;4991852;28;20468;-69
2023/07/27 09:21:07;;;;;;;31.08;23.25;;;34.60;99.90;;;;;;4994135;28;20075;-68
2023/07/27 09:23:35;;;;;;;38.63;24.52;;;34.50;99.90;;;;;;4992014;28;20085;-68
2023/07/27 09:26:02;;;;;;;43.78;30.40;;;34.60;99.90;;;;;;4993954;28;20029;-69
2023/07/27 09:28:29;;;;;;;43.65;30.95;;;34.50;99.90;;;;;;4991129;28;20023;-67
2023/07/27 09:31:00;;;;;;;48.50;32.35;;;34.50;99.90;;;;;;4993680;28;20022;-67
2023/07/27 09:33:26;;;;;;;43.42;30.08;;;34.50;99.90;;;;;;4982956;28;20026;-68
2023/07/27 09:35:58;;;;;;;37.08;26.58;;;34.50;99.90;;;;;;4983800;28;20026;-67
2023/07/27 09:38:26;;;;;;;39.95;26.13;;;34.40;99.90;;;;;;4994354;28;20105;-70
2023/07/27 09:40:53;;;;;;;47.42;30.50;;;34.30;99.90;;;;;;4989736;28;20030;-66
2023/07/27 09:43:23;;;;;;;39.95;27.48;;;34.30;99.90;;;;;;5007974;28;20984;-66
2023/07/27 09:45:58;;;;;;;39.70;25.27;;;34.30;99.90;;;;;;4992376;28;20022;-67
2023/07/27 09:48:25;;;;;;;38.53;24.30;;;34.30;99.90;;;;;;4988309;28;20026;-66
2023/07/27 09:50:56;;;;;;;34.00;23.88;;;34.30;99.90;;;;;;4991496;28;20075;-66
2023/07/27 09:53:24;;;;;;;34.83;25.63;;;34.30;99.90;;;;;;4991794;28;20167;-66
2023/07/27 09:55:51;;;;;;;66.38;37.55;;;34.20;99.90;;;;;;4991061;28;20496;-67
2023/07/27 09:58:18;;;;;;;42.78;28.45;;;34.20;99.90;;;;;;4992400;28;20029;-70
2023/07/27 10:00:45;;;;;;;56.30;36.17;;;34.20;99.90;;;;;;4992427;28;20039;-68
2023/07/27 10:03:12;;;;;;;49.40;35.35;;;34.10;99.90;;;;;;4992759;28;20018;-69
2023/07/27 10:05:43;;;;;;;38.08;27.13;;;34.10;99.90;;;;;;4993130;28;20361;-70
2023/07/27 10:08:09;;;;;;;41.08;29.40;;;34.10;99.90;;;;;;4992855;28;20121;-70
2023/07/27 10:10:42;;;;;;;41.58;29.10;;;34.10;99.90;;;;;;4991583;28;20031;-70
2023/07/27 10:13:30;;;;;;;66.07;38.45;;;34.00;99.90;;;;;;4993454;28;20185;-67
2023/07/27 10:16:00;;;;;;;56.00;35.38;;;34.00;99.90;;;;;;4980725;28;20113;-66
2023/07/27 10:18:29;;;;;;;37.40;28.05;;;34.00;99.90;;;;;;4993318;28;20023;-66
2023/07/27 10:21:16;;;;;;;37.25;25.75;;;33.90;99.90;;;;;;4991293;28;20401;-66
2023/07/27 10:23:59;;;;;;;47.85;30.67;;;33.90;99.90;;;;;;4982254;28;20366;-68
2023/07/27 10:26:46;;;;;;;47.95;34.25;;;33.90;99.90;;;;;;4973605;28;20035;-67
2023/07/27 10:29:15;;;;;;;42.55;29.35;;;33.90;99.90;;;;;;4973561;28;20058;-67
2023/07/27 10:31:44;;;;;;;55.83;28.67;;;33.90;99.90;;;;;;4973276;28;20469;-68
2023/07/27 10:34:18;;;;;;;66.80;44.33;;;33.90;99.90;;;;;;4973255;28;20035;-68
2023/07/27 10:37:02;;;;;;;79.22;54.08;;;33.80;99.90;;;;;;4973381;28;20477;-69
2023/07/27 10:39:29;;;;;;;105.95;69.30;;;33.80;99.90;;;;;;4973587;28;20473;-71
2023/07/27 10:42:13;;;;;;;107.15;72.55;;;33.80;99.90;;;;;;4976812;28;20062;-69
2023/07/27 10:44:44;;;;;;;197.20;137.50;;;33.70;99.90;;;;;;4979229;28;20034;-70
2023/07/27 10:47:24;;;;;;;136.90;89.88;;;33.70;99.90;;;;;;4973239;28;20558;-70
2023/07/27 10:49:53;;;;;;;77.97;50.92;;;33.70;99.90;;;;;;4975253;28;20557;-70
2023/07/27 10:52:33;;;;;;;62.05;40.42;;;33.70;99.90;;;;;;4989464;28;20101;-69
2023/07/27 10:55:03;;;;;;;67.18;42.53;;;33.60;99.90;;;;;;4991730;28;20014;-70
2023/07/27 10:57:32;;;;;;;62.55;42.05;;;33.60;99.90;;;;;;4982618;28;20068;-69
2023/07/27 10:59:59;;;;;;;61.90;41.10;;;33.60;99.90;;;;;;4983380;28;20105;-67
2023/07/27 11:02:32;;;;;;;93.28;58.38;;;33.60;99.90;;;;;;4990190;28;20034;-65
2023/07/27 11:05:07;;;;;;;90.85;55.75;;;33.50;99.90;;;;;;4985888;28;20027;-67
2023/07/27 11:07:37;;;;;;;69.80;43.40;;;33.50;99.90;;;;;;4974734;28;20447;-67
2023/07/27 11:10:09;;;;;;;88.50;63.05;;;33.50;99.90;;;;;;4973115;28;20023;-67
2023/07/27 11:12:46;;;;;;;57.90;41.67;;;33.40;99.90;;;;;;5029166;23;20060;-66
2023/07/27 11:15:21;;;;;;;80.78;54.97;;;33.40;99.90;;;;;;5029521;28;20367;-67
2023/07/27 11:17:57;;;;;;;85.13;59.15;;;33.40;99.90;;;;;;5029926;28;20121;-65
2023/07/27 11:20:25;;;;;;;145.88;111.78;;;33.40;99.90;;;;;;5028435;28;20032;-66
2023/07/27 11:22:53;;;;;;;115.82;77.72;;;33.30;99.90;;;;;;5079693;23;20049;-66
2023/07/27 11:25:20;;;;;;;96.85;63.30;;;33.30;99.90;;;;;;5113031;28;20028;-63
2023/07/27 11:27:50;;;;;;;63.60;43.90;;;33.30;99.90;;;;;;5114347;28;20594;-67
2023/07/27 11:30:21;;;;;;;54.20;39.15;;;33.30;99.90;;;;;;5113711;28;20054;-67
2023/07/27 11:33:06;;;;;;;75.95;51.95;;;33.30;99.90;;;;;;5114605;28;20382;-66
2023/07/27 11:35:33;;;;;;;188.10;114.82;;;33.30;99.90;;;;;;5113011;28;20016;-66
2023/07/27 11:38:01;;;;;;;130.02;79.53;;;33.20;99.90;;;;;;5110715;28;20047;-68
2023/07/27 11:40:27;;;;;;;101.90;69.13;;;33.20;99.90;;;;;;5111223;28;20026;-67
2023/07/27 11:42:55;;;;;;;101.32;63.95;;;33.10;99.90;;;;;;5110834;28;20020;-68
2023/07/27 11:45:22;;;;;;;94.13;57.83;;;33.00;99.90;;;;;;5110794;28;20481;-67
2023/07/27 11:47:52;;;;;;;134.23;93.88;;;32.90;99.90;;;;;;5114594;28;20028;-67
2023/07/27 11:50:20;;;;;;;70.47;50.17;;;32.80;99.90;;;;;;5094175;28;20485;-66
2023/07/27 11:52:51;;;;;;;71.72;42.60;;;32.80;99.90;;;;;;5082362;28;20028;-67
2023/07/27 11:55:17;;;;;;;60.28;40.92;;;32.60;99.90;;;;;;5088826;28;20016;-67
2023/07/27 11:57:53;;;;;;;54.00;37.13;;;32.60;99.90;;;;;;5087373;28;20032;-67
2023/07/27 12:00:21;;;;;;;67.93;42.58;;;32.40;99.90;;;;;;5084252;28;20086;-67
2023/07/27 12:02:49;;;;;;;166.30;125.00;;;32.40;99.90;;;;;;5082612;28;20033;-67
2023/07/27 12:05:22;;;;;;;137.60;102.22;;;32.30;99.90;;;;;;5083939;28;20023;-68
2023/07/27 12:07:50;;;;;;;80.90;56.80;;;32.30;99.90;;;;;;5086470;28;20137;-66
2023/07/27 12:10:18;;;;;;;66.38;44.30;;;32.30;99.90;;;;;;5090495;28;20023;-67
2023/07/27 12:12:54;;;;;;;61.90;39.35;;;32.10;99.90;;;;;;5084201;28;20021;-67
2023/07/27 12:15:28;;;;;;;62.05;40.55;;;32.10;99.90;;;;;;5085339;28;20051;-67
2023/07/27 12:17:59;;;;;;;73.85;48.00;;;32.10;99.90;;;;;;5090098;28;20012;-66
2023/07/27 12:20:28;;;;;;;60.42;44.10;;;32.10;99.90;;;;;;5083748;28;20532;-66
2023/07/27 12:22:56;;;;;;;66.70;44.22;;;32.10;99.90;;;;;;5083344;28;20118;-66
2023/07/27 12:25:23;;;;;;;73.28;46.67;;;32.00;99.90;;;;;;5082568;28;20024;-67
2023/07/27 12:27:50;;;;;;;76.85;53.60;;;32.00;99.90;;;;;;5084974;28;20048;-66
2023/07/27 12:30:17;;;;;;;65.00;42.88;;;31.90;99.90;;;;;;5088239;28;20032;-66
2023/07/27 12:32:43;;;;;;;64.78;38.58;;;31.80;99.90;;;;;;5089868;28;20095;-66